createdAt,value
2022-12-11T00:01:10.735Z,95245.61
2022-12-11T00:03:42.692Z,95238.81
2022-12-11T00:06:13.885Z,95233.23
2022-12-11T00:08:42.095Z,95220.86
2022-12-11T00:11:13.080Z,95222.30
2022-12-11T00:13:41.952Z,95219.81
2022-12-11T00:16:10.564Z,95219.95
2022-12-11T00:18:38.709Z,95213.31
2022-12-11T00:21:09.814Z,95210.83
2022-12-11T00:23:38.743Z,95205.59
2022-12-11T00:26:09.721Z,95193.05
2022-12-11T00:28:37.676Z,95194.03
2022-12-11T00:31:07.645Z,95197.38
2022-12-11T00:33:35.694Z,95199.00
2022-12-11T00:36:04.193Z,95195.85
2022-12-11T00:38:32.207Z,95192.96
2022-12-11T00:41:00.346Z,95196.19
2022-12-11T00:43:28.508Z,95190.98
2022-12-11T00:45:56.515Z,95187.55
2022-12-11T00:48:24.650Z,95189.27
2022-12-11T00:50:53.036Z,95181.63
2022-12-11T00:53:21.141Z,95178.16
2022-12-11T00:55:49.425Z,95169.27
2022-12-11T00:58:17.870Z,95154.05
2022-12-11T01:00:46.074Z,95150.45
2022-12-11T01:03:15.278Z,95151.61
2022-12-11T01:05:54.741Z,95148.70
2022-12-11T01:08:22.968Z,95147.12
2022-12-11T01:10:51.052Z,95150.48
2022-12-11T01:13:19.074Z,95152.42
2022-12-11T01:15:47.134Z,95153.11
2022-12-11T01:18:15.989Z,95151.30
2022-12-11T01:20:44.115Z,95142.65
2022-12-11T01:23:13.665Z,95140.29
2022-12-11T01:25:42.684Z,95143.45
2022-12-11T01:28:11.636Z,95142.28
2022-12-11T01:30:42.142Z,95140.47
2022-12-11T01:33:10.588Z,95137.48
2022-12-11T01:35:40.401Z,95135.17
2022-12-11T01:38:10.215Z,95132.65
2022-12-11T01:40:38.668Z,95124.15
2022-12-11T01:43:09.812Z,95126.85
2022-12-11T01:45:45.041Z,95125.21
2022-12-11T01:48:18.596Z,95128.27
2022-12-11T01:51:02.941Z,95119.84
2022-12-11T01:53:35.056Z,95124.21
2022-12-11T01:56:04.918Z,95124.92
2022-12-11T01:58:38.782Z,95122.63
2022-12-11T02:01:08.152Z,95116.20
2022-12-11T02:03:36.480Z,95114.08
2022-12-11T02:06:04.905Z,95111.42
2022-12-11T02:08:33.096Z,95112.45
2022-12-11T02:11:04.346Z,95113.65
2022-12-11T02:13:41.402Z,95104.16
2022-12-11T02:16:26.333Z,95096.64
2022-12-11T02:19:15.132Z,95093.93
2022-12-11T02:21:49.793Z,95090.58
2022-12-11T02:24:45.747Z,95089.17
2022-12-11T02:27:29.064Z,95078.77
2022-12-11T02:30:13.979Z,95081.11
2022-12-11T02:32:53.977Z,95082.33
2022-12-11T02:35:28.404Z,95085.93
2022-12-11T02:38:27.360Z,95082.98
2022-12-11T02:40:58.051Z,95077.66
2022-12-11T02:43:27.739Z,95068.76
2022-12-11T02:45:57.679Z,95066.20
2022-12-11T02:48:26.683Z,95055.77
2022-12-11T02:50:58.215Z,95053.05
2022-12-11T02:53:29.491Z,95056.89
2022-12-11T02:56:06.392Z,95055.79
2022-12-11T02:58:37.788Z,95053.59
2022-12-11T03:01:06.100Z,95057.89
2022-12-11T03:03:34.439Z,95058.79
2022-12-11T03:06:02.632Z,95057.92
2022-12-11T03:08:31.914Z,95056.48
2022-12-11T03:11:00.012Z,95057.08
2022-12-11T03:13:28.279Z,95057.70
2022-12-11T03:16:19.641Z,95053.92
2022-12-11T03:19:02.042Z,95047.88
2022-12-11T03:21:41.699Z,95048.59
2022-12-11T03:24:20.920Z,95049.20
2022-12-11T03:26:57.323Z,95044.59
2022-12-11T03:29:35.260Z,95041.05
2022-12-11T03:32:09.560Z,95041.56
2022-12-11T03:34:58.571Z,95033.37
2022-12-11T03:37:31.464Z,95028.70
2022-12-11T03:40:04.919Z,95022.34
2022-12-11T03:42:34.304Z,95015.95
2022-12-11T03:45:03.831Z,95009.08
2022-12-11T03:47:33.252Z,95004.11
2022-12-11T03:50:04.258Z,94999.45
2022-12-11T03:52:32.943Z,94992.05
2022-12-11T03:55:03.880Z,94983.21
2022-12-11T03:57:37.272Z,94976.57
2022-12-11T04:00:13.951Z,94973.80
2022-12-11T04:02:42.947Z,94970.81
2022-12-11T04:05:11.678Z,94973.19
2022-12-11T04:07:39.999Z,94977.52
2022-12-11T04:10:08.484Z,94974.47
2022-12-11T04:12:36.477Z,94965.00
2022-12-11T04:15:04.857Z,94956.54
2022-12-11T04:17:54.496Z,94954.25
2022-12-11T04:20:41.064Z,94955.84
2022-12-11T04:23:33.670Z,94950.90
2022-12-11T04:26:09.119Z,94952.61
2022-12-11T04:28:37.143Z,94947.79
2022-12-11T04:31:05.441Z,94937.02
2022-12-11T04:33:33.359Z,94939.70
2022-12-11T04:36:01.490Z,94936.15
2022-12-11T04:38:29.626Z,94936.43
2022-12-11T04:41:02.015Z,94941.25
2022-12-11T04:43:30.119Z,94942.73
2022-12-11T04:46:02.625Z,94943.74
2022-12-11T04:48:31.062Z,94940.61
2022-12-11T04:50:59.420Z,94943.54
2022-12-11T04:53:28.259Z,94948.85
2022-12-11T04:55:56.426Z,94954.48
2022-12-11T04:58:25.864Z,94952.19
2022-12-11T05:00:54.277Z,94954.17
2022-12-11T05:03:23.752Z,94952.61
2022-12-11T05:05:53.827Z,94952.27
2022-12-11T05:08:22.199Z,94952.64
2022-12-11T05:10:58.868Z,94954.23
2022-12-11T05:13:28.488Z,94948.99
2022-12-11T05:15:57.440Z,94949.27
2022-12-11T05:18:26.171Z,94946.55
2022-12-11T05:20:59.242Z,94937.29
2022-12-11T05:23:28.318Z,94951.30
2022-12-11T05:25:58.367Z,94952.64
2022-12-11T05:28:31.596Z,94954.17
2022-12-11T05:31:05.366Z,94951.94
2022-12-11T05:33:34.394Z,94956.77
2022-12-11T05:36:02.968Z,94959.77
2022-12-11T05:38:31.322Z,94955.40
2022-12-11T05:41:06.145Z,94954.55
2022-12-11T05:43:35.956Z,94957.09
2022-12-11T05:46:09.293Z,94959.39
2022-12-11T05:48:38.376Z,94960.75
2022-12-11T05:51:08.567Z,94965.39
2022-12-11T05:53:38.319Z,94961.60
2022-12-11T05:56:06.963Z,94960.98
2022-12-11T05:58:35.647Z,94965.26
2022-12-11T06:01:08.578Z,94967.75
2022-12-11T06:03:37.291Z,94965.82
2022-12-11T06:06:06.348Z,94966.02
2022-12-11T06:08:34.864Z,94968.11
2022-12-11T06:11:04.171Z,94962.50
2022-12-11T06:13:32.311Z,94965.88
2022-12-11T06:16:03.004Z,94968.62
2022-12-11T06:18:31.310Z,94966.20
2022-12-11T06:20:59.360Z,94961.08
2022-12-11T06:23:27.478Z,94962.64
2022-12-11T06:25:55.622Z,94965.47
2022-12-11T06:28:23.573Z,94968.12
2022-12-11T06:30:51.699Z,94981.61
2022-12-11T06:33:19.853Z,94997.81
2022-12-11T06:35:47.948Z,95008.34
2022-12-11T06:38:16.070Z,95002.48
2022-12-11T06:40:45.407Z,94998.51
2022-12-11T06:43:13.531Z,94998.13
2022-12-11T06:45:41.775Z,95001.41
2022-12-11T06:48:10.163Z,95008.80
2022-12-11T06:50:38.994Z,95010.41
2022-12-11T06:53:07.607Z,95013.64
2022-12-11T06:55:36.652Z,95018.36
2022-12-11T06:58:05.699Z,95017.41
2022-12-11T07:00:35.924Z,95010.40
2022-12-11T07:03:05.010Z,95009.22
2022-12-11T07:05:34.027Z,95017.98
2022-12-11T07:08:02.246Z,95017.80
2022-12-11T07:10:30.680Z,95022.41
2022-12-11T07:12:58.665Z,95016.33
2022-12-11T07:15:26.612Z,95019.55
2022-12-11T07:17:54.799Z,95020.95
2022-12-11T07:20:23.327Z,95019.57
2022-12-11T07:22:51.605Z,95021.61
2022-12-11T07:25:19.504Z,95017.90
2022-12-11T07:27:47.907Z,95019.13
2022-12-11T07:30:16.176Z,95022.34
2022-12-11T07:32:44.821Z,95024.23
2022-12-11T07:35:13.309Z,95029.80
2022-12-11T07:37:42.053Z,95040.85
2022-12-11T07:40:10.597Z,95052.55
2022-12-11T07:42:44.454Z,95063.65
2022-12-11T07:45:14.418Z,95075.73
2022-12-11T07:47:42.976Z,95076.30
2022-12-11T07:50:11.225Z,95081.52
2022-12-11T07:52:39.565Z,95090.36
2022-12-11T07:55:08.193Z,95100.21
2022-12-11T07:57:36.748Z,95116.08
2022-12-11T08:00:05.626Z,95124.77
2022-12-11T08:02:40.532Z,95131.54
2022-12-11T08:05:09.816Z,95137.61
2022-12-11T08:07:38.245Z,95138.70
2022-12-11T08:10:06.664Z,95137.95
2022-12-11T08:12:34.820Z,95146.30
2022-12-11T08:15:03.318Z,95148.52
2022-12-11T08:17:36.682Z,95150.73
2022-12-11T08:20:08.791Z,95154.48
2022-12-11T08:22:37.015Z,95177.64
2022-12-11T08:25:05.663Z,95189.33
2022-12-11T08:27:33.898Z,95201.25
2022-12-11T08:30:02.173Z,95213.69
2022-12-11T08:32:30.372Z,95227.29
2022-12-11T08:34:58.481Z,95228.80
2022-12-11T08:37:27.102Z,95234.33
2022-12-11T08:39:55.909Z,95239.35
2022-12-11T08:42:24.069Z,95236.70
2022-12-11T08:44:52.425Z,95238.48
2022-12-11T08:47:21.842Z,95240.65
2022-12-11T08:49:50.188Z,95242.63
2022-12-11T08:52:18.455Z,95248.57
2022-12-11T08:54:46.465Z,95256.36
2022-12-11T08:57:15.054Z,95254.05
2022-12-11T08:59:43.261Z,95264.27
2022-12-11T09:02:13.088Z,95276.02
2022-12-11T09:04:43.031Z,95284.19
2022-12-11T09:07:12.785Z,95292.98
2022-12-11T09:09:47.306Z,95297.04
2022-12-11T09:12:15.615Z,95299.27
2022-12-11T09:14:44.298Z,95298.46
2022-12-11T09:17:13.688Z,95307.06
2022-12-11T09:19:41.954Z,95318.06
2022-12-11T09:22:11.357Z,95318.32
2022-12-11T09:24:39.895Z,95321.71
2022-12-11T09:27:08.945Z,95329.77
2022-12-11T09:29:38.778Z,95336.41
2022-12-11T09:32:07.183Z,95339.67
2022-12-11T09:34:35.407Z,95346.14
2022-12-11T09:37:04.152Z,95348.33
2022-12-11T09:39:31.999Z,95360.52
2022-12-11T09:42:32.347Z,95365.88
2022-12-11T09:45:03.523Z,95383.03
2022-12-11T09:47:38.170Z,95397.70
2022-12-11T09:50:09.909Z,95402.94
2022-12-11T09:52:50.307Z,95410.05
2022-12-11T09:55:24.367Z,95411.25
2022-12-11T09:57:58.586Z,95411.90
2022-12-11T10:00:37.233Z,95414.55
2022-12-11T10:03:28.556Z,95428.23
2022-12-11T10:06:07.479Z,95445.61
2022-12-11T10:08:57.854Z,95446.55
2022-12-11T10:11:39.028Z,95443.58
2022-12-11T10:14:19.118Z,95431.86
2022-12-11T10:16:52.406Z,95414.95
2022-12-11T10:19:30.841Z,95410.83
2022-12-11T10:22:01.019Z,95418.32
2022-12-11T10:25:07.743Z,95424.95
2022-12-11T10:27:23.921Z,95429.13
2022-12-11T10:30:07.869Z,95427.60
2022-12-11T10:33:12.167Z,95443.12
2022-12-11T10:35:48.383Z,95454.98
2022-12-11T10:38:34.363Z,95468.22
2022-12-11T10:41:12.543Z,95479.08
2022-12-11T10:43:44.424Z,95487.55
2022-12-11T10:46:20.466Z,95499.36
2022-12-11T10:48:54.598Z,95499.01
2022-12-11T10:51:25.799Z,95490.64
2022-12-11T10:54:02.673Z,95485.05
2022-12-11T10:56:37.817Z,95495.31
2022-12-11T10:59:07.062Z,95499.56
2022-12-11T11:01:36.052Z,95509.05
2022-12-11T11:04:07.665Z,95517.11
2022-12-11T11:06:36.378Z,95527.38
2022-12-11T11:09:04.755Z,95550.27
2022-12-11T11:11:38.402Z,95567.54
2022-12-11T11:14:11.172Z,95571.80
2022-12-11T11:16:41.540Z,95576.31
2022-12-11T11:19:37.671Z,95580.88
2022-12-11T11:22:12.891Z,95585.02
2022-12-11T11:24:45.882Z,95596.64
2022-12-11T11:27:23.232Z,95607.82
2022-12-11T11:29:58.313Z,95608.77
2022-12-11T11:32:33.757Z,95607.63
2022-12-11T11:35:14.198Z,95613.34
2022-12-11T11:37:47.275Z,95611.87
2022-12-11T11:40:22.503Z,95610.38
2022-12-11T11:43:15.707Z,95610.63
2022-12-11T11:45:59.854Z,95614.67
2022-12-11T11:48:48.540Z,95627.23
2022-12-11T11:51:44.352Z,95639.33
2022-12-11T11:54:36.804Z,95643.08
2022-12-11T11:57:18.488Z,95639.67
2022-12-11T11:59:54.271Z,95638.73
2022-12-11T12:02:23.100Z,95648.23
2022-12-11T12:04:52.031Z,95650.36
2022-12-11T12:08:02.249Z,95648.59
2022-12-11T12:10:52.386Z,95645.54
2022-12-11T12:13:49.194Z,95646.92
2022-12-11T12:16:59.210Z,95641.59
2022-12-11T12:19:41.304Z,95644.70
2022-12-11T12:22:18.476Z,95649.52
2022-12-11T12:25:03.374Z,95659.36
2022-12-11T12:27:52.395Z,95671.17
2022-12-11T12:30:23.179Z,95689.17
2022-12-11T12:33:12.211Z,95696.98
2022-12-11T12:36:03.437Z,95697.31
2022-12-11T12:39:01.179Z,95700.72
2022-12-11T12:41:54.771Z,95694.84
2022-12-11T12:44:25.445Z,95706.61
2022-12-11T12:46:59.831Z,95710.71
2022-12-11T12:49:40.773Z,95722.08
2022-12-11T12:52:22.944Z,95723.92
2022-12-11T12:55:13.706Z,95725.25
2022-12-11T12:58:08.716Z,95729.30
2022-12-11T13:00:43.591Z,95733.65
2022-12-11T13:03:18.496Z,95731.48
2022-12-11T13:05:58.016Z,95740.13
2022-12-11T13:08:29.436Z,95741.09
2022-12-11T13:11:03.699Z,95742.27
2022-12-11T13:13:38.204Z,95741.63
2022-12-11T13:16:28.938Z,95736.14
2022-12-11T13:18:57.338Z,95746.73
2022-12-11T13:21:34.827Z,95746.55
2022-12-11T13:24:15.796Z,95749.88
2022-12-11T13:26:47.482Z,95757.97
2022-12-11T13:29:39.690Z,95764.66
2022-12-11T13:32:07.856Z,95763.46
2022-12-11T13:34:44.939Z,95754.09
2022-12-11T13:37:28.442Z,95754.59
2022-12-11T13:39:57.888Z,95757.09
2022-12-11T13:42:32.598Z,95763.20
2022-12-11T13:45:02.382Z,95756.64
2022-12-11T13:47:32.807Z,95759.89
2022-12-11T13:50:19.174Z,95768.52
2022-12-11T13:52:55.344Z,95770.70
2022-12-11T13:55:27.114Z,95769.02
2022-12-11T13:57:55.467Z,95777.31
2022-12-11T14:00:27.019Z,95779.23
2022-12-11T14:02:58.517Z,95776.57
2022-12-11T14:05:27.180Z,95774.67
2022-12-11T14:07:59.264Z,95771.36
2022-12-11T14:10:31.453Z,95771.36
2022-12-11T14:12:59.738Z,95778.04
2022-12-11T14:15:30.462Z,95784.14
2022-12-11T14:18:01.025Z,95784.81
2022-12-11T14:20:32.934Z,95789.41
2022-12-11T14:23:22.747Z,95786.90
2022-12-11T14:26:00.407Z,95793.46
2022-12-11T14:28:35.963Z,95798.92
2022-12-11T14:31:06.005Z,95806.70
2022-12-11T14:33:39.945Z,95816.39
2022-12-11T14:36:09.585Z,95816.48
2022-12-11T14:38:52.889Z,95819.62
2022-12-11T14:41:42.682Z,95823.52
2022-12-11T14:44:18.095Z,95836.44
2022-12-11T14:46:55.055Z,95847.71
2022-12-11T14:49:34.611Z,95852.14
2022-12-11T14:52:04.321Z,95857.49
2022-12-11T14:54:42.001Z,95860.42
2022-12-11T14:57:21.249Z,95861.86
2022-12-11T14:59:53.052Z,95869.67
2022-12-11T15:02:36.124Z,95870.63
2022-12-11T15:05:20.134Z,95877.67
2022-12-11T15:08:01.836Z,95878.01
2022-12-11T15:10:41.408Z,95875.83
2022-12-11T15:13:10.908Z,95879.60
2022-12-11T15:15:48.619Z,95884.50
2022-12-11T15:18:31.196Z,95888.31
2022-12-11T15:21:29.135Z,95894.81
2022-12-11T15:24:00.756Z,95896.11
2022-12-11T15:26:38.536Z,95900.13
2022-12-11T15:29:25.421Z,95899.48
2022-12-11T15:32:10.173Z,95897.33
2022-12-11T15:35:00.035Z,95900.46
2022-12-11T15:37:33.322Z,95906.70
2022-12-11T15:40:03.003Z,95910.45
2022-12-11T15:42:35.723Z,95913.45
2022-12-11T15:45:09.434Z,95914.41
2022-12-11T15:47:38.070Z,95916.91
2022-12-11T15:50:19.664Z,95920.16
2022-12-11T15:52:49.979Z,95922.95
2022-12-11T15:55:19.668Z,95925.82
2022-12-11T15:58:03.767Z,95925.98
2022-12-11T16:00:32.823Z,95928.38
2022-12-11T16:03:01.649Z,95930.85
2022-12-11T16:05:30.927Z,95930.36
2022-12-11T16:07:59.903Z,95926.15
2022-12-11T16:10:29.492Z,95931.80
2022-12-11T16:12:59.927Z,95936.03
2022-12-11T16:15:29.996Z,95942.36
2022-12-11T16:18:07.821Z,95937.98
2022-12-11T16:20:37.520Z,95937.42
2022-12-11T16:23:06.241Z,95935.60
2022-12-11T16:25:34.585Z,95937.94
2022-12-11T16:28:03.664Z,95937.95
2022-12-11T16:30:34.336Z,95938.09
2022-12-11T16:33:10.267Z,95939.20
2022-12-11T16:35:42.901Z,95944.14
2022-12-11T16:38:11.771Z,95942.95
2022-12-11T16:40:41.645Z,95945.66
2022-12-11T16:43:11.116Z,95946.83
2022-12-11T16:45:41.145Z,95947.80
2022-12-11T16:48:09.671Z,95945.72
2022-12-11T16:50:40.369Z,95947.55
2022-12-11T16:53:09.369Z,95945.34
2022-12-11T16:55:39.851Z,95942.77
2022-12-11T16:58:08.544Z,95941.65
2022-12-11T17:00:38.437Z,95945.08
2022-12-11T17:03:07.461Z,95947.93
2022-12-11T17:05:39.574Z,95950.35
2022-12-11T17:08:08.224Z,95959.73
2022-12-11T17:10:41.582Z,95963.48
2022-12-11T17:13:10.049Z,95971.26
2022-12-11T17:15:42.519Z,95971.73
2022-12-11T17:18:12.418Z,95977.13
2022-12-11T17:20:42.142Z,95986.70
2022-12-11T17:23:11.793Z,95983.13
2022-12-11T17:25:44.588Z,95988.54
2022-12-11T17:28:13.824Z,95997.70
2022-12-11T17:30:43.657Z,96000.98
2022-12-11T17:33:12.058Z,96001.95
2022-12-11T17:35:40.174Z,96010.05
2022-12-11T17:38:08.439Z,96012.10
2022-12-11T17:40:40.892Z,96019.45
2022-12-11T17:43:10.121Z,96020.85
2022-12-11T17:45:47.643Z,96028.62
2022-12-11T17:48:16.948Z,96027.61
2022-12-11T17:50:47.337Z,96029.15
2022-12-11T17:53:17.965Z,96036.36
2022-12-11T17:55:47.228Z,96033.02
2022-12-11T17:58:17.924Z,96032.27
2022-12-11T18:00:51.319Z,96033.34
2022-12-11T18:03:20.846Z,96037.00
2022-12-11T18:05:51.847Z,96036.98
2022-12-11T18:08:27.238Z,96034.27
2022-12-11T18:10:56.194Z,96034.90
2022-12-11T18:13:24.887Z,96047.66
2022-12-11T18:16:06.180Z,96048.03
2022-12-11T18:18:35.348Z,96050.25
2022-12-11T18:21:04.421Z,96049.99
2022-12-11T18:23:33.755Z,96051.45
2022-12-11T18:26:02.770Z,96058.02
2022-12-11T18:28:32.886Z,96058.05
2022-12-11T18:31:02.705Z,96059.16
2022-12-11T18:33:32.408Z,96063.69
2022-12-11T18:36:00.929Z,96070.98
2022-12-11T18:38:29.360Z,96073.27
2022-12-11T18:40:58.504Z,96068.27
2022-12-11T18:43:26.782Z,96069.95
2022-12-11T18:45:54.965Z,96074.16
2022-12-11T18:48:23.581Z,96076.73
2022-12-11T18:50:52.379Z,96086.39
2022-12-11T18:53:20.754Z,96091.56
2022-12-11T18:55:49.376Z,96093.23
2022-12-11T18:58:19.441Z,96087.17
2022-12-11T19:00:47.724Z,96079.88
2022-12-11T19:03:16.185Z,96069.84
2022-12-11T19:05:44.637Z,96073.17
2022-12-11T19:08:14.582Z,96073.75
2022-12-11T19:10:47.452Z,96074.30
2022-12-11T19:13:15.699Z,96077.54
2022-12-11T19:15:44.449Z,96080.33
2022-12-11T19:18:13.233Z,96092.02
2022-12-11T19:20:56.751Z,96099.92
2022-12-11T19:23:32.928Z,96105.34
2022-12-11T19:26:02.620Z,96104.25
2022-12-11T19:28:31.572Z,96115.05
2022-12-11T19:30:59.986Z,96128.16
2022-12-11T19:33:28.380Z,96133.34
2022-12-11T19:36:11.869Z,96138.88
2022-12-11T19:38:41.684Z,96148.24
2022-12-11T19:41:16.572Z,96145.32
2022-12-11T19:43:45.368Z,96141.84
2022-12-11T19:46:14.281Z,96144.25
2022-12-11T19:48:42.802Z,96140.15
2022-12-11T19:51:20.039Z,96132.36
2022-12-11T19:53:50.153Z,96131.09
2022-12-11T19:56:20.438Z,96131.80
2022-12-11T19:58:49.065Z,96135.64
2022-12-11T20:01:25.896Z,96132.58
2022-12-11T20:03:57.813Z,96122.77
2022-12-11T20:06:32.446Z,96117.50
2022-12-11T20:09:01.480Z,96118.18
2022-12-11T20:11:32.503Z,96119.05
2022-12-11T20:14:01.214Z,96121.46
2022-12-11T20:16:53.863Z,96117.33
2022-12-11T20:19:17.905Z,96122.82
2022-12-11T20:21:46.133Z,96138.79
2022-12-11T20:24:14.753Z,96140.48
2022-12-11T20:26:42.864Z,96139.63
2022-12-11T20:29:12.389Z,96142.02
2022-12-11T20:31:41.303Z,96143.58
2022-12-11T20:34:09.545Z,96146.87
2022-12-11T20:36:37.896Z,96150.17
2022-12-11T20:39:05.904Z,96147.98
2022-12-11T20:41:34.325Z,96146.27
2022-12-11T20:44:02.645Z,96154.10
2022-12-11T20:46:30.776Z,96153.23
2022-12-11T20:48:59.207Z,96149.14
2022-12-11T20:51:28.217Z,96146.95
2022-12-11T20:53:59.279Z,96146.88
2022-12-11T20:56:30.004Z,96157.94
2022-12-11T20:58:59.793Z,96170.49
2022-12-11T21:01:31.494Z,96176.20
2022-12-11T21:04:00.065Z,96181.72
2022-12-11T21:06:34.560Z,96170.35
2022-12-11T21:09:11.689Z,96170.83
2022-12-11T21:11:39.975Z,96175.48
2022-12-11T21:14:08.143Z,96178.37
2022-12-11T21:16:37.954Z,96177.26
2022-12-11T21:19:06.954Z,96175.89
2022-12-11T21:21:42.414Z,96176.39
2022-12-11T21:24:15.182Z,96176.44
2022-12-11T21:26:43.525Z,96182.85
2022-12-11T21:29:12.172Z,96184.40
2022-12-11T21:31:40.335Z,96179.39
2022-12-11T21:34:08.625Z,96175.45
2022-12-11T21:36:36.880Z,96174.23
2022-12-11T21:39:05.280Z,96175.92
2022-12-11T21:41:33.894Z,96179.85
2022-12-11T21:46:50.496Z,96176.45
2022-12-11T21:49:18.596Z,96172.61
2022-12-11T21:51:47.753Z,96166.55
2022-12-11T21:54:18.950Z,96161.89
2022-12-11T21:56:47.688Z,96160.05
2022-12-11T21:59:16.010Z,96161.96
2022-12-11T22:01:46.417Z,96162.11
2022-12-11T22:04:15.490Z,96160.27
2022-12-11T22:06:47.066Z,96164.40
2022-12-11T22:09:16.530Z,96168.05
2022-12-11T22:11:46.201Z,96168.63
2022-12-11T22:14:17.130Z,96169.67
2022-12-11T22:16:45.508Z,96166.37
2022-12-11T22:19:13.988Z,96166.32
2022-12-11T22:21:42.621Z,96162.04
2022-12-11T22:24:10.799Z,96159.59
2022-12-11T22:26:39.338Z,96160.27
2022-12-11T22:29:07.858Z,96167.84
2022-12-11T22:31:36.003Z,96165.77
2022-12-11T22:34:05.042Z,96161.29
2022-12-11T22:36:33.207Z,96160.42
2022-12-11T22:39:02.118Z,96160.77
2022-12-11T22:41:32.898Z,96160.80
2022-12-11T22:44:01.226Z,96160.33
2022-12-11T22:46:31.245Z,96160.39
2022-12-11T22:48:59.760Z,96160.29
2022-12-11T22:51:27.900Z,96161.88
2022-12-11T22:53:56.063Z,96164.95
2022-12-11T22:56:24.663Z,96169.58
2022-12-11T22:58:52.768Z,96177.61
2022-12-11T23:01:24.774Z,96181.05
2022-12-11T23:03:53.364Z,96186.86
2022-12-11T23:06:23.479Z,96192.34
2022-12-11T23:08:53.156Z,96195.42
2022-12-11T23:11:28.316Z,96199.16
2022-12-11T23:13:57.185Z,96201.54
2022-12-11T23:16:26.435Z,96202.27
2022-12-11T23:18:56.140Z,96193.30
2022-12-11T23:21:26.282Z,96186.89
2022-12-11T23:23:55.929Z,96190.46
2022-12-11T23:26:24.738Z,96199.52
2022-12-11T23:28:54.752Z,96200.16
2022-12-11T23:31:24.153Z,96208.03
2022-12-11T23:33:53.034Z,96220.89
2022-12-11T23:36:21.830Z,96227.42
2022-12-11T23:38:54.574Z,96229.80
2022-12-11T23:41:23.564Z,96230.15
2022-12-11T23:43:52.024Z,96227.57
2022-12-11T23:46:22.819Z,96225.55
2022-12-11T23:48:52.321Z,96225.97
2022-12-11T23:51:23.459Z,96224.92
2022-12-11T23:53:51.985Z,96236.84
2022-12-11T23:56:26.437Z,96236.86
2022-12-11T23:58:55.927Z,96239.09
